sensor_id;sensor_type;location;lat;lon;timestamp;P1;durP1;ratioP1;P2;durP2;ratioP2
55224;SDS011;41091;49.400;8.684;2022-11-11T00:00:35;3.45;;;2.42;;
55224;SDS011;41091;49.400;8.684;2022-11-11T00:03:03;6.30;;;2.38;;
55224;SDS011;41091;49.400;8.684;2022-11-11T00:05:32;6.32;;;2.90;;
55224;SDS011;41091;49.400;8.684;2022-11-11T00:07:58;2.53;;;2.28;;
55224;SDS011;41091;49.400;8.684;2022-11-11T00:10:32;5.18;;;3.72;;
55224;SDS011;41091;49.400;8.684;2022-11-11T00:13:01;3.70;;;2.60;;
55224;SDS011;41091;49.400;8.684;2022-11-11T00:15:29;6.05;;;2.70;;
55224;SDS011;41091;49.400;8.684;2022-11-11T00:17:57;8.80;;;3.25;;
55224;SDS011;41091;49.400;8.684;2022-11-11T00:20:41;5.05;;;3.50;;
55224;SDS011;41091;49.400;8.684;2022-11-11T00:23:26;7.28;;;4.25;;
55224;SDS011;41091;49.400;8.684;2022-11-11T00:26:13;7.80;;;5.05;;
55224;SDS011;41091;49.400;8.684;2022-11-11T00:28:39;16.58;;;8.38;;
55224;SDS011;41091;49.400;8.684;2022-11-11T00:31:10;15.63;;;7.00;;
55224;SDS011;41091;49.400;8.684;2022-11-11T00:33:36;10.57;;;6.90;;
55224;SDS011;41091;49.400;8.684;2022-11-11T00:36:02;12.80;;;6.03;;
55224;SDS011;41091;49.400;8.684;2022-11-11T00:38:30;15.30;;;7.50;;
55224;SDS011;41091;49.400;8.684;2022-11-11T00:41:11;10.60;;;5.30;;
55224;SDS011;41091;49.400;8.684;2022-11-11T00:43:41;10.52;;;6.28;;
55224;SDS011;41091;49.400;8.684;2022-11-11T00:46:12;17.25;;;5.80;;
55224;SDS011;41091;49.400;8.684;2022-11-11T00:49:00;13.20;;;5.30;;
55224;SDS011;41091;49.400;8.684;2022-11-11T00:51:44;12.25;;;5.70;;
55224;SDS011;41091;49.400;8.684;2022-11-11T00:54:11;13.10;;;5.78;;
55224;SDS011;41091;49.400;8.684;2022-11-11T00:56:36;14.48;;;5.45;;
55224;SDS011;41091;49.400;8.684;2022-11-11T00:59:05;10.55;;;5.93;;
55224;SDS011;41091;49.400;8.684;2022-11-11T01:01:32;8.80;;;5.33;;
55224;SDS011;41091;49.400;8.684;2022-11-11T01:04:06;7.80;;;4.65;;
55224;SDS011;41091;49.400;8.684;2022-11-11T01:06:31;10.20;;;5.25;;
55224;SDS011;41091;49.400;8.684;2022-11-11T01:09:03;7.82;;;4.85;;
55224;SDS011;41091;49.400;8.684;2022-11-11T01:11:29;9.50;;;5.10;;
55224;SDS011;41091;49.400;8.684;2022-11-11T01:13:59;9.90;;;4.80;;
55224;SDS011;41091;49.400;8.684;2022-11-11T01:16:26;10.70;;;3.80;;
55224;SDS011;41091;49.400;8.684;2022-11-11T01:18:52;8.13;;;3.35;;
55224;SDS011;41091;49.400;8.684;2022-11-11T01:21:19;8.88;;;2.97;;
55224;SDS011;41091;49.400;8.684;2022-11-11T01:23:48;6.07;;;2.58;;
55224;SDS011;41091;49.400;8.684;2022-11-11T01:26:19;2.63;;;2.42;;
55224;SDS011;41091;49.400;8.684;2022-11-11T01:28:50;2.25;;;2.05;;
55224;SDS011;41091;49.400;8.684;2022-11-11T01:31:17;7.88;;;2.90;;
55224;SDS011;41091;49.400;8.684;2022-11-11T01:33:43;3.33;;;2.42;;
55224;SDS011;41091;49.400;8.684;2022-11-11T01:36:13;1.80;;;1.70;;
55224;SDS011;41091;49.400;8.684;2022-11-11T01:38:43;3.92;;;2.10;;
55224;SDS011;41091;49.400;8.684;2022-11-11T01:41:17;3.55;;;2.42;;
55224;SDS011;41091;49.400;8.684;2022-11-11T01:44:02;7.60;;;2.28;;
55224;SDS011;41091;49.400;8.684;2022-11-11T01:46:46;2.80;;;2.55;;
55224;SDS011;41091;49.400;8.684;2022-11-11T01:54:23;8.15;;;2.28;;
55224;SDS011;41091;49.400;8.684;2022-11-11T01:56:54;4.78;;;2.33;;
55224;SDS011;41091;49.400;8.684;2022-11-11T01:59:27;8.82;;;2.63;;
55224;SDS011;41091;49.400;8.684;2022-11-11T02:01:58;3.15;;;2.60;;
55224;SDS011;41091;49.400;8.684;2022-11-11T02:07:13;6.65;;;3.10;;
55224;SDS011;41091;49.400;8.684;2022-11-11T02:09:40;5.80;;;2.85;;
55224;SDS011;41091;49.400;8.684;2022-11-11T02:12:07;2.75;;;2.50;;
55224;SDS011;41091;49.400;8.684;2022-11-11T02:14:56;5.03;;;2.45;;
55224;SDS011;41091;49.400;8.684;2022-11-11T02:17:23;6.78;;;2.45;;
55224;SDS011;41091;49.400;8.684;2022-11-11T02:19:50;6.13;;;2.42;;
55224;SDS011;41091;49.400;8.684;2022-11-11T02:25:13;2.25;;;2.15;;
55224;SDS011;41091;49.400;8.684;2022-11-11T02:27:42;3.50;;;2.70;;
55224;SDS011;41091;49.400;8.684;2022-11-11T02:30:13;3.35;;;2.78;;
55224;SDS011;41091;49.400;8.684;2022-11-11T02:32:42;5.32;;;2.47;;
55224;SDS011;41091;49.400;8.684;2022-11-11T02:35:29;12.20;;;2.97;;
55224;SDS011;41091;49.400;8.684;2022-11-11T02:37:56;2.28;;;2.15;;
55224;SDS011;41091;49.400;8.684;2022-11-11T02:40:25;3.30;;;1.80;;
55224;SDS011;41091;49.400;8.684;2022-11-11T02:42:53;4.50;;;2.53;;
55224;SDS011;41091;49.400;8.684;2022-11-11T02:45:20;6.50;;;2.10;;
55224;SDS011;41091;49.400;8.684;2022-11-11T02:47:46;2.40;;;2.22;;
55224;SDS011;41091;49.400;8.684;2022-11-11T02:50:13;11.15;;;2.90;;
55224;SDS011;41091;49.400;8.684;2022-11-11T02:52:39;3.63;;;3.17;;
55224;SDS011;41091;49.400;8.684;2022-11-11T02:55:06;4.90;;;3.00;;
55224;SDS011;41091;49.400;8.684;2022-11-11T02:57:32;4.40;;;3.10;;
55224;SDS011;41091;49.400;8.684;2022-11-11T02:59:58;6.57;;;3.28;;
55224;SDS011;41091;49.400;8.684;2022-11-11T03:02:27;2.50;;;2.30;;
55224;SDS011;41091;49.400;8.684;2022-11-11T03:04:55;2.75;;;2.50;;
55224;SDS011;41091;49.400;8.684;2022-11-11T03:07:22;3.10;;;2.42;;
55224;SDS011;41091;49.400;8.684;2022-11-11T03:09:48;3.10;;;1.98;;
55224;SDS011;41091;49.400;8.684;2022-11-11T03:12:16;2.92;;;1.90;;
55224;SDS011;41091;49.400;8.684;2022-11-11T03:14:43;1.52;;;1.42;;
55224;SDS011;41091;49.400;8.684;2022-11-11T03:17:11;5.00;;;2.00;;
55224;SDS011;41091;49.400;8.684;2022-11-11T03:19:55;2.35;;;1.95;;
55224;SDS011;41091;49.400;8.684;2022-11-11T03:22:40;2.05;;;1.90;;
55224;SDS011;41091;49.400;8.684;2022-11-11T03:25:08;3.15;;;2.03;;
55224;SDS011;41091;49.400;8.684;2022-11-11T03:27:52;2.83;;;2.17;;
55224;SDS011;41091;49.400;8.684;2022-11-11T03:30:17;7.68;;;2.25;;
55224;SDS011;41091;49.400;8.684;2022-11-11T03:32:42;6.00;;;2.72;;
55224;SDS011;41091;49.400;8.684;2022-11-11T03:35:08;4.50;;;3.85;;
55224;SDS011;41091;49.400;8.684;2022-11-11T03:37:35;7.72;;;3.53;;
55224;SDS011;41091;49.400;8.684;2022-11-11T03:40:19;7.50;;;4.40;;
55224;SDS011;41091;49.400;8.684;2022-11-11T03:42:47;4.55;;;4.15;;
55224;SDS011;41091;49.400;8.684;2022-11-11T03:45:12;5.88;;;4.57;;
55224;SDS011;41091;49.400;8.684;2022-11-11T03:47:37;9.90;;;4.60;;
55224;SDS011;41091;49.400;8.684;2022-11-11T03:50:03;8.05;;;4.53;;
55224;SDS011;41091;49.400;8.684;2022-11-11T03:52:31;10.90;;;4.95;;
55224;SDS011;41091;49.400;8.684;2022-11-11T03:54:57;15.73;;;4.57;;
55224;SDS011;41091;49.400;8.684;2022-11-11T03:57:24;9.45;;;4.25;;
55224;SDS011;41091;49.400;8.684;2022-11-11T03:59:55;13.40;;;4.50;;
55224;SDS011;41091;49.400;8.684;2022-11-11T04:02:20;7.28;;;3.35;;
55224;SDS011;41091;49.400;8.684;2022-11-11T04:05:04;6.78;;;4.13;;
55224;SDS011;41091;49.400;8.684;2022-11-11T04:07:51;11.85;;;3.70;;
55224;SDS011;41091;49.400;8.684;2022-11-11T04:10:38;7.30;;;3.33;;
55224;SDS011;41091;49.400;8.684;2022-11-11T04:13:03;2.70;;;2.50;;
55224;SDS011;41091;49.400;8.684;2022-11-11T04:15:48;4.35;;;2.90;;
55224;SDS011;41091;49.400;8.684;2022-11-11T04:18:32;5.47;;;2.22;;
55224;SDS011;41091;49.400;8.684;2022-11-11T04:21:19;3.17;;;2.78;;
55224;SDS011;41091;49.400;8.684;2022-11-11T04:24:03;12.02;;;4.10;;
55224;SDS011;41091;49.400;8.684;2022-11-11T04:26:48;7.68;;;4.57;;
55224;SDS011;41091;49.400;8.684;2022-11-11T04:29:14;6.70;;;4.28;;
55224;SDS011;41091;49.400;8.684;2022-11-11T04:31:52;8.52;;;4.35;;
55224;SDS011;41091;49.400;8.684;2022-11-11T04:34:36;5.97;;;4.60;;
55224;SDS011;41091;49.400;8.684;2022-11-11T04:37:04;7.07;;;3.92;;
55224;SDS011;41091;49.400;8.684;2022-11-11T04:39:29;4.82;;;4.32;;
55224;SDS011;41091;49.400;8.684;2022-11-11T04:42:13;7.28;;;4.63;;
55224;SDS011;41091;49.400;8.684;2022-11-11T04:44:40;8.65;;;4.07;;
55224;SDS011;41091;49.400;8.684;2022-11-11T04:47:24;7.47;;;4.68;;
55224;SDS011;41091;49.400;8.684;2022-11-11T04:49:52;10.60;;;5.57;;
55224;SDS011;41091;49.400;8.684;2022-11-11T04:52:17;7.75;;;5.03;;
55224;SDS011;41091;49.400;8.684;2022-11-11T04:54:52;12.20;;;4.57;;
55224;SDS011;41091;49.400;8.684;2022-11-11T04:57:44;5.90;;;4.50;;
55224;SDS011;41091;49.400;8.684;2022-11-11T05:00:12;6.97;;;5.22;;
55224;SDS011;41091;49.400;8.684;2022-11-11T05:02:39;6.80;;;3.72;;
55224;SDS011;41091;49.400;8.684;2022-11-11T05:05:26;5.63;;;4.57;;
55224;SDS011;41091;49.400;8.684;2022-11-11T05:08:14;7.57;;;4.82;;
55224;SDS011;41091;49.400;8.684;2022-11-11T05:10:58;7.97;;;4.63;;
55224;SDS011;41091;49.400;8.684;2022-11-11T05:13:26;8.07;;;4.82;;
55224;SDS011;41091;49.400;8.684;2022-11-11T05:16:13;8.45;;;6.00;;
55224;SDS011;41091;49.400;8.684;2022-11-11T05:18:59;14.45;;;5.78;;
55224;SDS011;41091;49.400;8.684;2022-11-11T05:21:46;14.20;;;6.40;;
55224;SDS011;41091;49.400;8.684;2022-11-11T05:26:58;12.55;;;5.85;;
55224;SDS011;41091;49.400;8.684;2022-11-11T05:29:23;8.48;;;5.40;;
55224;SDS011;41091;49.400;8.684;2022-11-11T05:31:48;7.07;;;5.57;;
55224;SDS011;41091;49.400;8.684;2022-11-11T05:34:18;10.63;;;6.32;;
55224;SDS011;41091;49.400;8.684;2022-11-11T05:36:46;12.43;;;6.00;;
55224;SDS011;41091;49.400;8.684;2022-11-11T05:39:14;7.18;;;5.32;;
55224;SDS011;41091;49.400;8.684;2022-11-11T05:41:42;7.35;;;5.13;;
55224;SDS011;41091;49.400;8.684;2022-11-11T05:44:09;6.28;;;4.97;;
55224;SDS011;41091;49.400;8.684;2022-11-11T05:46:35;6.57;;;4.90;;
55224;SDS011;41091;49.400;8.684;2022-11-11T05:49:00;9.13;;;4.55;;
55224;SDS011;41091;49.400;8.684;2022-11-11T05:51:44;8.50;;;4.60;;
55224;SDS011;41091;49.400;8.684;2022-11-11T05:54:12;6.75;;;4.80;;
55224;SDS011;41091;49.400;8.684;2022-11-11T05:56:40;5.55;;;4.82;;
55224;SDS011;41091;49.400;8.684;2022-11-11T05:59:06;7.00;;;5.35;;
55224;SDS011;41091;49.400;8.684;2022-11-11T06:01:35;13.13;;;5.25;;
55224;SDS011;41091;49.400;8.684;2022-11-11T06:04:03;12.73;;;5.63;;
55224;SDS011;41091;49.400;8.684;2022-11-11T06:06:30;23.58;;;5.57;;
55224;SDS011;41091;49.400;8.684;2022-11-11T06:08:56;13.43;;;5.20;;
55224;SDS011;41091;49.400;8.684;2022-11-11T06:11:21;5.80;;;4.95;;
55224;SDS011;41091;49.400;8.684;2022-11-11T06:13:49;9.18;;;5.47;;
55224;SDS011;41091;49.400;8.684;2022-11-11T06:16:17;8.45;;;5.70;;
55224;SDS011;41091;49.400;8.684;2022-11-11T06:18:42;8.52;;;5.30;;
55224;SDS011;41091;49.400;8.684;2022-11-11T06:21:10;12.43;;;4.88;;
55224;SDS011;41091;49.400;8.684;2022-11-11T06:23:35;18.65;;;5.85;;
55224;SDS011;41091;49.400;8.684;2022-11-11T06:26:01;10.43;;;5.80;;
55224;SDS011;41091;49.400;8.684;2022-11-11T06:28:50;8.43;;;6.80;;
55224;SDS011;41091;49.400;8.684;2022-11-11T06:31:20;5.82;;;5.22;;
55224;SDS011;41091;49.400;8.684;2022-11-11T06:33:50;16.20;;;4.88;;
55224;SDS011;41091;49.400;8.684;2022-11-11T06:36:19;6.97;;;5.80;;
55224;SDS011;41091;49.400;8.684;2022-11-11T06:38:45;9.60;;;5.95;;
55224;SDS011;41091;49.400;8.684;2022-11-11T06:41:12;9.02;;;5.53;;
55224;SDS011;41091;49.400;8.684;2022-11-11T06:43:40;10.60;;;5.40;;
55224;SDS011;41091;49.400;8.684;2022-11-11T06:46:26;6.43;;;5.32;;
55224;SDS011;41091;49.400;8.684;2022-11-11T06:48:51;8.63;;;4.75;;
55224;SDS011;41091;49.400;8.684;2022-11-11T06:51:19;5.88;;;5.00;;
55224;SDS011;41091;49.400;8.684;2022-11-11T06:53:44;6.20;;;5.60;;
55224;SDS011;41091;49.400;8.684;2022-11-11T06:56:10;7.65;;;5.47;;
55224;SDS011;41091;49.400;8.684;2022-11-11T06:58:36;11.00;;;5.57;;
55224;SDS011;41091;49.400;8.684;2022-11-11T07:01:04;6.03;;;5.40;;
55224;SDS011;41091;49.400;8.684;2022-11-11T07:03:33;10.30;;;5.68;;
55224;SDS011;41091;49.400;8.684;2022-11-11T07:05:59;5.93;;;5.05;;
55224;SDS011;41091;49.400;8.684;2022-11-11T07:08:25;8.65;;;6.22;;
55224;SDS011;41091;49.400;8.684;2022-11-11T07:10:51;14.63;;;5.97;;
55224;SDS011;41091;49.400;8.684;2022-11-11T07:13:18;9.25;;;5.50;;
55224;SDS011;41091;49.400;8.684;2022-11-11T07:15:46;10.50;;;4.95;;
55224;SDS011;41091;49.400;8.684;2022-11-11T07:18:11;8.32;;;5.70;;
55224;SDS011;41091;49.400;8.684;2022-11-11T07:20:37;13.77;;;6.47;;
55224;SDS011;41091;49.400;8.684;2022-11-11T07:23:05;12.88;;;7.70;;
55224;SDS011;41091;49.400;8.684;2022-11-11T07:25:31;16.25;;;6.20;;
55224;SDS011;41091;49.400;8.684;2022-11-11T07:27:57;12.57;;;6.15;;
55224;SDS011;41091;49.400;8.684;2022-11-11T07:30:22;18.98;;;6.50;;
55224;SDS011;41091;49.400;8.684;2022-11-11T07:32:50;11.95;;;6.40;;
55224;SDS011;41091;49.400;8.684;2022-11-11T07:35:17;16.80;;;7.97;;
55224;SDS011;41091;49.400;8.684;2022-11-11T07:37:43;11.05;;;6.22;;
55224;SDS011;41091;49.400;8.684;2022-11-11T07:40:12;13.98;;;7.07;;
55224;SDS011;41091;49.400;8.684;2022-11-11T07:42:38;16.58;;;7.88;;
55224;SDS011;41091;49.400;8.684;2022-11-11T07:45:05;17.95;;;8.48;;
55224;SDS011;41091;49.400;8.684;2022-11-11T07:47:31;14.43;;;7.63;;
55224;SDS011;41091;49.400;8.684;2022-11-11T07:49:59;10.18;;;6.47;;
55224;SDS011;41091;49.400;8.684;2022-11-11T07:52:25;15.43;;;7.50;;
55224;SDS011;41091;49.400;8.684;2022-11-11T07:54:53;15.57;;;7.45;;
55224;SDS011;41091;49.400;8.684;2022-11-11T07:57:25;14.32;;;7.57;;
55224;SDS011;41091;49.400;8.684;2022-11-11T07:59:50;14.80;;;7.88;;
55224;SDS011;41091;49.400;8.684;2022-11-11T08:02:16;15.82;;;7.85;;
55224;SDS011;41091;49.400;8.684;2022-11-11T08:04:44;18.50;;;8.13;;
55224;SDS011;41091;49.400;8.684;2022-11-11T08:07:09;13.65;;;7.22;;
55224;SDS011;41091;49.400;8.684;2022-11-11T08:09:35;11.38;;;7.50;;
55224;SDS011;41091;49.400;8.684;2022-11-11T08:12:03;15.48;;;7.25;;
55224;SDS011;41091;49.400;8.684;2022-11-11T08:14:47;11.45;;;7.00;;
55224;SDS011;41091;49.400;8.684;2022-11-11T08:17:12;10.60;;;6.13;;
55224;SDS011;41091;49.400;8.684;2022-11-11T08:19:37;10.43;;;6.32;;
55224;SDS011;41091;49.400;8.684;2022-11-11T08:22:02;10.20;;;6.53;;
55224;SDS011;41091;49.400;8.684;2022-11-11T08:24:29;10.82;;;6.13;;
55224;SDS011;41091;49.400;8.684;2022-11-11T08:26:59;14.73;;;7.20;;
55224;SDS011;41091;49.400;8.684;2022-11-11T08:29:24;12.57;;;7.57;;
55224;SDS011;41091;49.400;8.684;2022-11-11T08:31:51;9.68;;;6.07;;
55224;SDS011;41091;49.400;8.684;2022-11-11T08:34:17;12.13;;;5.95;;
55224;SDS011;41091;49.400;8.684;2022-11-11T08:36:42;9.95;;;6.72;;
55224;SDS011;41091;49.400;8.684;2022-11-11T08:39:11;15.95;;;6.15;;
55224;SDS011;41091;49.400;8.684;2022-11-11T08:41:40;9.23;;;6.43;;
55224;SDS011;41091;49.400;8.684;2022-11-11T08:44:05;8.02;;;4.95;;
55224;SDS011;41091;49.400;8.684;2022-11-11T08:46:30;9.30;;;5.05;;
55224;SDS011;41091;49.400;8.684;2022-11-11T08:48:58;7.05;;;5.43;;
55224;SDS011;41091;49.400;8.684;2022-11-11T08:51:26;13.65;;;5.05;;
55224;SDS011;41091;49.400;8.684;2022-11-11T08:53:51;11.65;;;5.75;;
55224;SDS011;41091;49.400;8.684;2022-11-11T08:56:17;10.45;;;6.03;;
55224;SDS011;41091;49.400;8.684;2022-11-11T08:58:42;8.07;;;6.10;;
55224;SDS011;41091;49.400;8.684;2022-11-11T09:01:13;8.43;;;5.10;;
55224;SDS011;41091;49.400;8.684;2022-11-11T09:03:39;9.77;;;5.25;;
55224;SDS011;41091;49.400;8.684;2022-11-11T09:06:08;14.23;;;5.13;;
55224;SDS011;41091;49.400;8.684;2022-11-11T09:08:36;5.95;;;5.40;;
55224;SDS011;41091;49.400;8.684;2022-11-11T09:11:06;8.32;;;5.30;;
55224;SDS011;41091;49.400;8.684;2022-11-11T09:13:34;7.60;;;5.47;;
55224;SDS011;41091;49.400;8.684;2022-11-11T09:15:59;10.48;;;5.35;;
55224;SDS011;41091;49.400;8.684;2022-11-11T09:18:27;7.68;;;4.45;;
55224;SDS011;41091;49.400;8.684;2022-11-11T09:20:56;9.85;;;4.95;;
55224;SDS011;41091;49.400;8.684;2022-11-11T09:23:27;6.55;;;5.43;;
55224;SDS011;41091;49.400;8.684;2022-11-11T09:25:52;10.57;;;4.90;;
55224;SDS011;41091;49.400;8.684;2022-11-11T09:28:22;12.63;;;5.50;;
55224;SDS011;41091;49.400;8.684;2022-11-11T09:30:47;6.53;;;4.30;;
55224;SDS011;41091;49.400;8.684;2022-11-11T09:33:13;13.13;;;6.10;;
55224;SDS011;41091;49.400;8.684;2022-11-11T09:35:42;5.13;;;4.72;;
55224;SDS011;41091;49.400;8.684;2022-11-11T09:38:07;9.95;;;4.55;;
55224;SDS011;41091;49.400;8.684;2022-11-11T09:41:20;4.78;;;4.32;;
55224;SDS011;41091;49.400;8.684;2022-11-11T09:46:12;8.45;;;6.15;;
55224;SDS011;41091;49.400;8.684;2022-11-11T09:51:51;19.30;;;5.45;;
55224;SDS011;41091;49.400;8.684;2022-11-11T09:54:19;11.35;;;5.15;;
55224;SDS011;41091;49.400;8.684;2022-11-11T09:56:55;6.93;;;4.95;;
55224;SDS011;41091;49.400;8.684;2022-11-11T09:59:27;9.00;;;5.28;;
55224;SDS011;41091;49.400;8.684;2022-11-11T10:01:56;7.10;;;4.70;;
55224;SDS011;41091;49.400;8.684;2022-11-11T10:07:05;14.35;;;5.38;;
55224;SDS011;41091;49.400;8.684;2022-11-11T10:09:40;10.02;;;7.05;;
55224;SDS011;41091;49.400;8.684;2022-11-11T10:12:10;10.30;;;5.30;;
55224;SDS011;41091;49.400;8.684;2022-11-11T10:14:42;8.95;;;5.75;;
55224;SDS011;41091;49.400;8.684;2022-11-11T10:22:30;14.10;;;5.82;;
55224;SDS011;41091;49.400;8.684;2022-11-11T10:25:08;9.88;;;5.45;;
55224;SDS011;41091;49.400;8.684;2022-11-11T10:27:51;15.05;;;5.38;;
55224;SDS011;41091;49.400;8.684;2022-11-11T10:30:25;7.78;;;5.82;;
55224;SDS011;41091;49.400;8.684;2022-11-11T10:33:05;7.32;;;5.70;;
55224;SDS011;41091;49.400;8.684;2022-11-11T10:35:54;10.00;;;5.75;;
55224;SDS011;41091;49.400;8.684;2022-11-11T10:41:10;7.80;;;4.38;;
55224;SDS011;41091;49.400;8.684;2022-11-11T10:43:39;6.75;;;5.28;;
55224;SDS011;41091;49.400;8.684;2022-11-11T10:48:47;6.40;;;4.90;;
55224;SDS011;41091;49.400;8.684;2022-11-11T10:51:14;5.78;;;5.13;;
55224;SDS011;41091;49.400;8.684;2022-11-11T10:53:42;7.57;;;4.97;;
55224;SDS011;41091;49.400;8.684;2022-11-11T10:56:18;6.80;;;5.03;;
55224;SDS011;41091;49.400;8.684;2022-11-11T11:01:31;9.07;;;6.07;;
55224;SDS011;41091;49.400;8.684;2022-11-11T11:06:34;13.55;;;6.05;;
55224;SDS011;41091;49.400;8.684;2022-11-11T11:12:02;8.88;;;5.50;;
55224;SDS011;41091;49.400;8.684;2022-11-11T11:14:35;5.70;;;5.07;;
55224;SDS011;41091;49.400;8.684;2022-11-11T11:17:07;15.63;;;5.43;;
55224;SDS011;41091;49.400;8.684;2022-11-11T11:19:37;12.25;;;5.10;;
55224;SDS011;41091;49.400;8.684;2022-11-11T11:22:03;11.00;;;4.75;;
55224;SDS011;41091;49.400;8.684;2022-11-11T11:24:30;9.90;;;5.35;;
55224;SDS011;41091;49.400;8.684;2022-11-11T11:26:57;15.57;;;4.93;;
55224;SDS011;41091;49.400;8.684;2022-11-11T11:34:46;7.53;;;4.28;;
55224;SDS011;41091;49.400;8.684;2022-11-11T11:37:12;7.03;;;4.53;;
55224;SDS011;41091;49.400;8.684;2022-11-11T11:39:40;8.25;;;4.72;;
55224;SDS011;41091;49.400;8.684;2022-11-11T11:42:06;9.02;;;4.43;;
55224;SDS011;41091;49.400;8.684;2022-11-11T11:44:35;5.93;;;4.15;;
55224;SDS011;41091;49.400;8.684;2022-11-11T11:52:47;8.80;;;5.00;;
55224;SDS011;41091;49.400;8.684;2022-11-11T11:55:20;6.72;;;4.85;;
55224;SDS011;41091;49.400;8.684;2022-11-11T12:00:20;5.88;;;4.50;;
55224;SDS011;41091;49.400;8.684;2022-11-11T12:03:02;9.60;;;4.80;;
55224;SDS011;41091;49.400;8.684;2022-11-11T12:11:05;7.25;;;4.35;;
55224;SDS011;41091;49.400;8.684;2022-11-11T12:30:16;7.32;;;4.88;;
55224;SDS011;41091;49.400;8.684;2022-11-11T12:32:48;7.60;;;5.45;;
55224;SDS011;41091;49.400;8.684;2022-11-11T12:41:25;9.30;;;6.57;;
55224;SDS011;41091;49.400;8.684;2022-11-11T12:44:10;12.90;;;5.97;;
55224;SDS011;41091;49.400;8.684;2022-11-11T12:51:55;7.95;;;5.50;;
55224;SDS011;41091;49.400;8.684;2022-11-11T12:54:37;8.13;;;5.70;;
55224;SDS011;41091;49.400;8.684;2022-11-11T12:59:53;11.65;;;7.40;;
55224;SDS011;41091;49.400;8.684;2022-11-11T13:16:23;11.57;;;7.77;;
55224;SDS011;41091;49.400;8.684;2022-11-11T13:19:02;13.68;;;9.98;;
55224;SDS011;41091;49.400;8.684;2022-11-11T13:21:35;22.38;;;11.18;;
55224;SDS011;41091;49.400;8.684;2022-11-11T13:24:12;13.80;;;10.15;;
55224;SDS011;41091;49.400;8.684;2022-11-11T13:26:44;23.73;;;12.15;;
55224;SDS011;41091;49.400;8.684;2022-11-11T13:32:09;15.63;;;12.25;;
55224;SDS011;41091;49.400;8.684;2022-11-11T13:34:35;22.10;;;13.02;;
55224;SDS011;41091;49.400;8.684;2022-11-11T13:37:04;25.88;;;15.02;;
55224;SDS011;41091;49.400;8.684;2022-11-11T13:39:33;22.08;;;14.70;;
55224;SDS011;41091;49.400;8.684;2022-11-11T13:42:03;24.05;;;12.98;;
55224;SDS011;41091;49.400;8.684;2022-11-11T13:44:30;19.50;;;13.18;;
55224;SDS011;41091;49.400;8.684;2022-11-11T13:47:03;18.42;;;13.80;;
55224;SDS011;41091;49.400;8.684;2022-11-11T13:51:58;27.00;;;13.57;;
55224;SDS011;41091;49.400;8.684;2022-11-11T13:54:39;21.10;;;14.75;;
55224;SDS011;41091;49.400;8.684;2022-11-11T13:57:27;31.67;;;17.15;;
55224;SDS011;41091;49.400;8.684;2022-11-11T14:02:27;29.88;;;16.02;;
55224;SDS011;41091;49.400;8.684;2022-11-11T14:18:07;31.98;;;16.60;;
55224;SDS011;41091;49.400;8.684;2022-11-11T14:20:55;34.65;;;16.63;;
55224;SDS011;41091;49.400;8.684;2022-11-11T14:23:31;23.88;;;15.40;;
55224;SDS011;41091;49.400;8.684;2022-11-11T14:39:23;32.13;;;17.58;;
55224;SDS011;41091;49.400;8.684;2022-11-11T14:41:56;26.58;;;16.55;;
55224;SDS011;41091;49.400;8.684;2022-11-11T14:52:20;28.73;;;17.73;;
55224;SDS011;41091;49.400;8.684;2022-11-11T15:00:03;30.17;;;18.52;;
55224;SDS011;41091;49.400;8.684;2022-11-11T15:02:50;27.50;;;18.00;;
55224;SDS011;41091;49.400;8.684;2022-11-11T15:05:28;30.73;;;18.58;;
55224;SDS011;41091;49.400;8.684;2022-11-11T15:08:15;31.08;;;19.10;;
55224;SDS011;41091;49.400;8.684;2022-11-11T15:16:34;30.25;;;18.00;;
55224;SDS011;41091;49.400;8.684;2022-11-11T15:21:42;34.47;;;19.25;;
55224;SDS011;41091;49.400;8.684;2022-11-11T15:38:01;36.35;;;20.33;;
55224;SDS011;41091;49.400;8.684;2022-11-11T15:40:44;34.00;;;20.80;;
55224;SDS011;41091;49.400;8.684;2022-11-11T15:43:13;29.77;;;20.27;;
55224;SDS011;41091;49.400;8.684;2022-11-11T15:48:12;31.93;;;18.73;;
55224;SDS011;41091;49.400;8.684;2022-11-11T15:50:50;35.80;;;21.48;;
55224;SDS011;41091;49.400;8.684;2022-11-11T15:53:35;41.08;;;20.85;;
55224;SDS011;41091;49.400;8.684;2022-11-11T15:56:01;35.78;;;20.50;;
55224;SDS011;41091;49.400;8.684;2022-11-11T15:58:30;42.83;;;20.98;;
55224;SDS011;41091;49.400;8.684;2022-11-11T16:00:59;36.42;;;20.05;;
55224;SDS011;41091;49.400;8.684;2022-11-11T16:06:12;33.78;;;18.80;;
55224;SDS011;41091;49.400;8.684;2022-11-11T16:08:44;31.92;;;17.98;;
55224;SDS011;41091;49.400;8.684;2022-11-11T16:11:12;31.23;;;19.48;;
55224;SDS011;41091;49.400;8.684;2022-11-11T16:13:49;31.52;;;18.33;;
55224;SDS011;41091;49.400;8.684;2022-11-11T16:18:47;32.80;;;19.83;;
55224;SDS011;41091;49.400;8.684;2022-11-11T16:23:51;32.08;;;20.67;;
55224;SDS011;41091;49.400;8.684;2022-11-11T16:26:17;34.33;;;19.90;;
55224;SDS011;41091;49.400;8.684;2022-11-11T16:28:54;38.33;;;19.60;;
55224;SDS011;41091;49.400;8.684;2022-11-11T16:34:44;41.22;;;21.05;;
55224;SDS011;41091;49.400;8.684;2022-11-11T16:37:03;33.20;;;20.58;;
55224;SDS011;41091;49.400;8.684;2022-11-11T16:39:32;35.95;;;19.83;;
55224;SDS011;41091;49.400;8.684;2022-11-11T16:41:59;37.78;;;22.75;;
55224;SDS011;41091;49.400;8.684;2022-11-11T16:44:38;35.90;;;21.23;;
55224;SDS011;41091;49.400;8.684;2022-11-11T16:47:05;43.50;;;22.83;;
55224;SDS011;41091;49.400;8.684;2022-11-11T16:52:14;43.03;;;23.55;;
55224;SDS011;41091;49.400;8.684;2022-11-11T16:54:49;41.40;;;23.00;;
55224;SDS011;41091;49.400;8.684;2022-11-11T16:57:19;51.50;;;24.55;;
55224;SDS011;41091;49.400;8.684;2022-11-11T16:59:47;43.65;;;22.73;;
55224;SDS011;41091;49.400;8.684;2022-11-11T17:02:19;46.45;;;23.67;;
55224;SDS011;41091;49.400;8.684;2022-11-11T17:07:26;51.35;;;23.10;;
55224;SDS011;41091;49.400;8.684;2022-11-11T17:12:35;58.28;;;24.58;;
55224;SDS011;41091;49.400;8.684;2022-11-11T17:15:02;47.03;;;22.90;;
55224;SDS011;41091;49.400;8.684;2022-11-11T17:17:32;48.45;;;23.58;;
55224;SDS011;41091;49.400;8.684;2022-11-11T17:20:04;50.25;;;23.80;;
55224;SDS011;41091;49.400;8.684;2022-11-11T17:22:30;56.50;;;25.27;;
55224;SDS011;41091;49.400;8.684;2022-11-11T17:24:55;50.58;;;26.70;;
55224;SDS011;41091;49.400;8.684;2022-11-11T17:27:22;43.25;;;23.17;;
55224;SDS011;41091;49.400;8.684;2022-11-11T17:29:50;54.63;;;25.77;;
55224;SDS011;41091;49.400;8.684;2022-11-11T17:32:16;52.22;;;25.45;;
55224;SDS011;41091;49.400;8.684;2022-11-11T17:34:41;57.47;;;24.80;;
55224;SDS011;41091;49.400;8.684;2022-11-11T17:37:06;44.15;;;24.23;;
55224;SDS011;41091;49.400;8.684;2022-11-11T17:39:32;55.38;;;24.73;;
55224;SDS011;41091;49.400;8.684;2022-11-11T17:41:57;47.60;;;24.33;;
55224;SDS011;41091;49.400;8.684;2022-11-11T17:44:22;50.40;;;23.88;;
55224;SDS011;41091;49.400;8.684;2022-11-11T17:46:48;55.55;;;25.40;;
55224;SDS011;41091;49.400;8.684;2022-11-11T17:49:13;45.40;;;23.17;;
55224;SDS011;41091;49.400;8.684;2022-11-11T17:51:40;44.17;;;23.15;;
55224;SDS011;41091;49.400;8.684;2022-11-11T17:54:06;47.15;;;24.67;;
55224;SDS011;41091;49.400;8.684;2022-11-11T17:56:33;54.05;;;25.25;;
55224;SDS011;41091;49.400;8.684;2022-11-11T17:59:02;47.67;;;24.20;;
55224;SDS011;41091;49.400;8.684;2022-11-11T18:01:28;43.80;;;23.77;;
55224;SDS011;41091;49.400;8.684;2022-11-11T18:03:54;47.35;;;22.83;;
55224;SDS011;41091;49.400;8.684;2022-11-11T18:06:20;51.80;;;23.92;;
55224;SDS011;41091;49.400;8.684;2022-11-11T18:08:45;47.78;;;23.90;;
55224;SDS011;41091;49.400;8.684;2022-11-11T18:11:13;48.15;;;23.20;;
55224;SDS011;41091;49.400;8.684;2022-11-11T18:13:38;49.55;;;22.20;;